^^
Station Historical Data
Daily Summary for May 1, 2017 Units:  Both    English   Metric
« Previous Day
Next Day »
Daily Weekly Monthly Yearly Custom
  High: Low: Average:
Temperature: 76.6 °F /  24.8 °C 47.8 °F /  8.8 °C 61.3 °F /  16.3 °C
Dew Point: 47.8 °F /  8.8 °C 43.2 °F /  6.2 °C 44.9 °F /  7.2 °C
Humidity: 85% 33% 58%
Wind Speed: 6.9mph /  11.1km/h - 0.8mph /  1.3km/h
Wind Gust: 9.0mph /  14.5km/h - -
Wind- - ESE
Pressure: 30.09 in /  1018.8 hPa 29.97 in /  1014.8 hPa -
Precipitation: 0.00 in /  0 mm    
Historical Graphs
 
 
Tabular Data for May 1, 2017
Time Temperature Dew Point Pressure Wind Wind Speed Wind Gust Humidity Rainfall Rate (Hourly) solar Conditions
00:01 53.1 °F /  11.7 °C 44.6 °F /  7 °C 30.07in /  1018.2hPa Calm     73% 0.00in /  0mm 0.0 W/m2
00:07 52.9 °F /  11.6 °C 44.8 °F /  7.1 °C 30.07in /  1018.2hPa Calm     74% 0.00in /  0mm 0.0 W/m2
00:13 52.7 °F /  11.5 °C 44.6 °F /  7 °C 30.06in /  1017.8hPa Calm     74% 0.00in /  0mm 0.0 W/m2
00:19 52.5 °F /  11.4 °C 44.4 °F /  6.9 °C 30.06in /  1017.8hPa Calm     74% 0.00in /  0mm 0.0 W/m2
00:25 52.3 °F /  11.3 °C 44.2 °F /  6.8 °C 30.06in /  1017.8hPa Calm     74% 0.00in /  0mm 0.0 W/m2
00:31 52.2 °F /  11.2 °C 44.4 °F /  6.9 °C 30.07in /  1018.2hPa Calm   1.0mph /  1.6km/h 75% 0.00in /  0mm 0.0 W/m2
00:37 52.2 °F /  11.2 °C 44.4 °F /  6.9 °C 30.06in /  1017.8hPa Calm   2.0mph /  3.2km/h 75% 0.00in /  0mm 0.0 W/m2
00:44 52.0 °F /  11.1 °C 44.2 °F /  6.8 °C 30.06in /  1017.8hPa Calm   1.0mph /  1.6km/h 75% 0.00in /  0mm 0.0 W/m2
00:50 52.0 °F /  11.1 °C 44.2 °F /  6.8 °C 30.07in /  1018.2hPa Calm   3.0mph /  4.8km/h 75% 0.00in /  0mm 0.0 W/m2
00:56 52.0 °F /  11.1 °C 44.2 °F /  6.8 °C 30.06in /  1017.8hPa Calm     75% 0.00in /  0mm 0.0 W/m2
01:02 52.2 °F /  11.2 °C 44.4 °F /  6.9 °C 30.06in /  1017.8hPa Calm   1.0mph /  1.6km/h 75% 0.00in /  0mm 0.0 W/m2
01:08 52.0 °F /  11.1 °C 44.2 °F /  6.8 °C 30.06in /  1017.8hPa Calm   2.0mph /  3.2km/h 75% 0.00in /  0mm 0.0 W/m2
01:14 52.0 °F /  11.1 °C 44.2 °F /  6.8 °C 30.06in /  1017.8hPa Calm   2.0mph /  3.2km/h 75% 0.00in /  0mm 0.0 W/m2
01:20 52.0 °F /  11.1 °C 44.2 °F /  6.8 °C 30.06in /  1017.8hPa ENE 0.9mph /  1.4km/h 2.0mph /  3.2km/h 75% 0.00in /  0mm 0.0 W/m2
01:27 51.8 °F /  11 °C 44.1 °F /  6.7 °C 30.06in /  1017.8hPa Calm     75% 0.00in /  0mm 0.0 W/m2
01:33 51.6 °F /  10.9 °C 44.2 °F /  6.8 °C 30.06in /  1017.8hPa Calm   3.0mph /  4.8km/h 76% 0.00in /  0mm 0.0 W/m2
01:39 51.6 °F /  10.9 °C 44.2 °F /  6.8 °C 30.06in /  1017.8hPa Calm   2.0mph /  3.2km/h 76% 0.00in /  0mm 0.0 W/m2
01:45 51.4 °F /  10.8 °C 44.1 °F /  6.7 °C 30.06in /  1017.8hPa Calm   1.0mph /  1.6km/h 76% 0.00in /  0mm 0.0 W/m2
01:51 51.4 °F /  10.8 °C 44.1 °F /  6.7 °C 30.06in /  1017.8hPa East 0.9mph /  1.4km/h 1.0mph /  1.6km/h 76% 0.00in /  0mm 0.0 W/m2
01:57 51.3 °F /  10.7 °C 43.9 °F /  6.6 °C 30.06in /  1017.8hPa Calm   1.0mph /  1.6km/h 76% 0.00in /  0mm 0.0 W/m2
02:03 51.3 °F /  10.7 °C 44.2 °F /  6.8 °C 30.05in /  1017.5hPa East 0.9mph /  1.4km/h 2.0mph /  3.2km/h 77% 0.00in /  0mm 0.0 W/m2
02:09 51.3 °F /  10.7 °C 44.2 °F /  6.8 °C 30.05in /  1017.5hPa Calm   3.0mph /  4.8km/h 77% 0.00in /  0mm 0.0 W/m2
02:15 51.1 °F /  10.6 °C 44.1 °F /  6.7 °C 30.05in /  1017.5hPa Calm     77% 0.00in /  0mm 0.0 W/m2
02:22 51.1 °F /  10.6 °C 44.1 °F /  6.7 °C 30.05in /  1017.5hPa Calm   2.0mph /  3.2km/h 77% 0.00in /  0mm 0.0 W/m2
02:28 50.9 °F /  10.5 °C 43.9 °F /  6.6 °C 30.05in /  1017.5hPa East 2.0mph /  3.2km/h 2.0mph /  3.2km/h 77% 0.00in /  0mm 0.0 W/m2
02:34 50.7 °F /  10.4 °C 44.1 °F /  6.7 °C 30.05in /  1017.5hPa Calm   1.0mph /  1.6km/h 78% 0.00in /  0mm 0.0 W/m2
02:40 50.7 °F /  10.4 °C 44.1 °F /  6.7 °C 30.05in /  1017.5hPa Calm   1.0mph /  1.6km/h 78% 0.00in /  0mm 0.0 W/m2
02:46 50.7 °F /  10.4 °C 44.1 °F /  6.7 °C 30.05in /  1017.5hPa ESE 0.9mph /  1.4km/h 2.0mph /  3.2km/h 78% 0.00in /  0mm 0.0 W/m2
02:52 50.7 °F /  10.4 °C 44.1 °F /  6.7 °C 30.05in /  1017.5hPa Calm     78% 0.00in /  0mm 0.0 W/m2
02:58 50.5 °F /  10.3 °C 43.9 °F /  6.6 °C 30.05in /  1017.5hPa NE 0.9mph /  1.4km/h 2.0mph /  3.2km/h 78% 0.00in /  0mm 0.0 W/m2
03:04 50.4 °F /  10.2 °C 43.7 °F /  6.5 °C 30.05in /  1017.5hPa East 0.9mph /  1.4km/h 3.0mph /  4.8km/h 78% 0.00in /  0mm 0.0 W/m2
03:11 50.4 °F /  10.2 °C 44.1 °F /  6.7 °C 30.04in /  1017.2hPa Calm   3.0mph /  4.8km/h 79% 0.00in /  0mm 0.0 W/m2
03:17 50.4 °F /  10.2 °C 44.1 °F /  6.7 °C 30.05in /  1017.5hPa Calm   2.0mph /  3.2km/h 79% 0.00in /  0mm 0.0 W/m2
03:23 50.2 °F /  10.1 °C 43.9 °F /  6.6 °C 30.05in /  1017.5hPa Calm     79% 0.00in /  0mm 0.0 W/m2
03:29 50.2 °F /  10.1 °C 43.9 °F /  6.6 °C 30.05in /  1017.5hPa ENE 0.9mph /  1.4km/h 3.0mph /  4.8km/h 79% 0.00in /  0mm 0.0 W/m2
03:35 50.2 °F /  10.1 °C 43.9 °F /  6.6 °C 30.05in /  1017.5hPa East 0.9mph /  1.4km/h 1.0mph /  1.6km/h 79% 0.00in /  0mm 0.0 W/m2
03:41 50.2 °F /  10.1 °C 43.9 °F /  6.6 °C 30.05in /  1017.5hPa Calm   1.0mph /  1.6km/h 79% 0.00in /  0mm 0.0 W/m2
03:47 50.2 °F /  10.1 °C 43.9 °F /  6.6 °C 30.05in /  1017.5hPa Calm   1.0mph /  1.6km/h 79% 0.00in /  0mm 0.0 W/m2
03:54 50.2 °F /  10.1 °C 43.9 °F /  6.6 °C 30.05in /  1017.5hPa Calm   2.0mph /  3.2km/h 79% 0.00in /  0mm 0.0 W/m2
04:00 50.2 °F /  10.1 °C 43.9 °F /  6.6 °C 30.04in /  1017.2hPa Calm   2.0mph /  3.2km/h 79% 0.00in /  0mm 0.0 W/m2
04:06 50.2 °F /  10.1 °C 43.9 °F /  6.6 °C 30.04in /  1017.2hPa Calm   1.0mph /  1.6km/h 79% 0.00in /  0mm 0.0 W/m2
04:12 50.2 °F /  10.1 °C 43.9 °F /  6.6 °C 30.04in /  1017.2hPa Calm   1.0mph /  1.6km/h 79% 0.00in /  0mm 0.0 W/m2
04:18 50.2 °F /  10.1 °C 43.9 °F /  6.6 °C 30.04in /  1017.2hPa Calm   2.0mph /  3.2km/h 79% 0.00in /  0mm 0.0 W/m2
04:24 50.0 °F /  10 °C 43.7 °F /  6.5 °C 30.04in /  1017.2hPa Calm   3.0mph /  4.8km/h 79% 0.00in /  0mm 0.0 W/m2
04:30 50.0 °F /  10 °C 44.1 °F /  6.7 °C 30.05in /  1017.5hPa Calm   2.0mph /  3.2km/h 80% 0.00in /  0mm 0.0 W/m2
04:36 50.0 °F /  10 °C 43.7 °F /  6.5 °C 30.05in /  1017.5hPa Calm   1.0mph /  1.6km/h 79% 0.00in /  0mm 0.0 W/m2
04:42 50.0 °F /  10 °C 43.7 °F /  6.5 °C 30.05in /  1017.5hPa Calm   1.0mph /  1.6km/h 79% 0.00in /  0mm 0.0 W/m2
04:49 49.8 °F /  9.9 °C 43.9 °F /  6.6 °C 30.05in /  1017.5hPa ENE 2.0mph /  3.2km/h 2.0mph /  3.2km/h 80% 0.00in /  0mm 0.0 W/m2
04:55 49.8 °F /  9.9 °C 43.9 °F /  6.6 °C 30.05in /  1017.5hPa Calm   2.0mph /  3.2km/h 80% 0.00in /  0mm 0.0 W/m2
05:01 49.8 °F /  9.9 °C 43.9 °F /  6.6 °C 30.05in /  1017.5hPa Calm     80% 0.00in /  0mm 0.0 W/m2
05:07 49.6 °F /  9.8 °C 43.7 °F /  6.5 °C 30.05in /  1017.5hPa Calm   1.0mph /  1.6km/h 80% 0.00in /  0mm 0.0 W/m2
05:13 49.5 °F /  9.7 °C 43.5 °F /  6.4 °C 30.05in /  1017.5hPa Calm   1.0mph /  1.6km/h 80% 0.00in /  0mm 0.0 W/m2
05:19 49.5 °F /  9.7 °C 43.9 °F /  6.6 °C 30.05in /  1017.5hPa Calm     81% 0.00in /  0mm 0.0 W/m2
05:26 49.3 °F /  9.6 °C 43.7 °F /  6.5 °C 30.05in /  1017.5hPa Calm     81% 0.00in /  0mm 0.0 W/m2
05:32 48.9 °F /  9.4 °C 43.3 °F /  6.3 °C 30.06in /  1017.8hPa Calm     81% 0.00in /  0mm 0.0 W/m2
05:38 48.7 °F /  9.3 °C 43.5 °F /  6.4 °C 30.06in /  1017.8hPa Calm     82% 0.00in /  0mm 0.0 W/m2
05:44 48.6 °F /  9.2 °C 43.3 °F /  6.3 °C 30.06in /  1017.8hPa Calm     82% 0.00in /  0mm 0.0 W/m2
05:50 48.6 °F /  9.2 °C 43.3 °F /  6.3 °C 30.06in /  1017.8hPa Calm     82% 0.00in /  0mm 0.0 W/m2
05:56 48.4 °F /  9.1 °C 43.2 °F /  6.2 °C 30.06in /  1017.8hPa Calm     82% 0.00in /  0mm 0.0 W/m2
06:02 48.4 °F /  9.1 °C 43.5 °F /  6.4 °C 30.06in /  1017.8hPa Calm   1.0mph /  1.6km/h 83% 0.00in /  0mm 0.0 W/m2
06:09 48.2 °F /  9 °C 43.3 °F /  6.3 °C 30.07in /  1018.2hPa Calm   3.0mph /  4.8km/h 83% 0.00in /  0mm 0.0 W/m2
06:15 48.0 °F /  8.9 °C 43.2 °F /  6.2 °C 30.07in /  1018.2hPa Calm   3.0mph /  4.8km/h 83% 0.00in /  0mm 5.0 W/m2
06:21 48.0 °F /  8.9 °C 43.2 °F /  6.2 °C 30.07in /  1018.2hPa Calm     83% 0.00in /  0mm 7.0 W/m2
06:27 48.0 °F /  8.9 °C 43.2 °F /  6.2 °C 30.07in /  1018.2hPa ENE 2.9mph /  4.7km/h 3.0mph /  4.8km/h 83% 0.00in /  0mm 11.0 W/m2
06:33 48.0 °F /  8.9 °C 43.3 °F /  6.3 °C 30.07in /  1018.2hPa Calm   1.0mph /  1.6km/h 84% 0.00in /  0mm 12.0 W/m2
06:40 47.8 °F /  8.8 °C 43.2 °F /  6.2 °C 30.07in /  1018.2hPa Calm     84% 0.00in /  0mm 14.0 W/m2
06:45 47.8 °F /  8.8 °C 43.2 °F /  6.2 °C 30.08in /  1018.5hPa ESE 2.0mph /  3.2km/h 2.0mph /  3.2km/h 84% 0.00in /  0mm 16.0 W/m2
06:52 48.2 °F /  9 °C 43.5 °F /  6.4 °C 30.08in /  1018.5hPa East 0.9mph /  1.4km/h 2.0mph /  3.2km/h 84% 0.00in /  0mm 18.0 W/m2
06:58 48.4 °F /  9.1 °C 43.7 °F /  6.5 °C 30.08in /  1018.5hPa Calm     84% 0.00in /  0mm 19.0 W/m2
07:04 48.7 °F /  9.3 °C 44.1 °F /  6.7 °C 30.08in /  1018.5hPa Calm   2.0mph /  3.2km/h 84% 0.00in /  0mm 21.0 W/m2
07:10 48.9 °F /  9.4 °C 44.6 °F /  7 °C 30.08in /  1018.5hPa Calm   1.0mph /  1.6km/h 85% 0.00in /  0mm 23.0 W/m2
07:16 49.3 °F /  9.6 °C 44.6 °F /  7 °C 30.09in /  1018.8hPa Calm   1.0mph /  1.6km/h 84% 0.00in /  0mm 25.0 W/m2
07:22 49.8 °F /  9.9 °C 45.1 °F /  7.3 °C 30.09in /  1018.8hPa Calm   1.0mph /  1.6km/h 84% 0.00in /  0mm 26.0 W/m2
07:28 50.4 °F /  10.2 °C 45.7 °F /  7.6 °C 30.09in /  1018.8hPa Calm     84% 0.00in /  0mm 28.0 W/m2
07:35 50.7 °F /  10.4 °C 45.7 °F /  7.6 °C 30.09in /  1018.8hPa Calm   2.0mph /  3.2km/h 83% 0.00in /  0mm 28.0 W/m2
07:41 51.4 °F /  10.8 °C 45.5 °F /  7.5 °C 30.09in /  1018.8hPa ESE 2.0mph /  3.2km/h 2.0mph /  3.2km/h 80% 0.00in /  0mm 30.0 W/m2
07:47 52.5 °F /  11.4 °C 45.5 °F /  7.5 °C 30.09in /  1018.8hPa NNE 0.9mph /  1.4km/h 2.0mph /  3.2km/h 77% 0.00in /  0mm 32.0 W/m2
07:53 53.8 °F /  12.1 °C 44.6 °F /  7 °C 30.09in /  1018.8hPa NNE 2.9mph /  4.7km/h 3.0mph /  4.8km/h 71% 0.00in /  0mm 32.0 W/m2
07:59 55.0 °F /  12.8 °C 44.6 °F /  7 °C 30.09in /  1018.8hPa Calm   1.0mph /  1.6km/h 68% 0.00in /  0mm 33.0 W/m2
08:05 55.9 °F /  13.3 °C 44.4 °F /  6.9 °C 30.09in /  1018.8hPa NNE 0.9mph /  1.4km/h 2.0mph /  3.2km/h 65% 0.00in /  0mm 35.0 W/m2
08:11 56.8 °F /  13.8 °C 44.4 °F /  6.9 °C 30.09in /  1018.8hPa Calm   1.0mph /  1.6km/h 63% 0.00in /  0mm 37.0 W/m2
08:18 57.7 °F /  14.3 °C 44.4 °F /  6.9 °C 30.09in /  1018.8hPa Calm   2.0mph /  3.2km/h 61% 0.00in /  0mm 40.0 W/m2
08:24 58.8 °F /  14.9 °C 45.0 °F /  7.2 °C 30.09in /  1018.8hPa Calm   3.0mph /  4.8km/h 60% 0.00in /  0mm 443.0 W/m2
08:30 60.3 °F /  15.7 °C 45.0 °F /  7.2 °C 30.09in /  1018.8hPa NNE 0.9mph /  1.4km/h 3.0mph /  4.8km/h 57% 0.00in /  0mm 464.0 W/m2
08:36 61.9 °F /  16.6 °C 44.6 °F /  7 °C 30.09in /  1018.8hPa Calm   5.0mph /  8km/h 53% 0.00in /  0mm 483.0 W/m2
08:42 63.0 °F /  17.2 °C 44.6 °F /  7 °C 30.09in /  1018.8hPa NNW 2.9mph /  4.7km/h 4.0mph /  6.4km/h 51% 0.00in /  0mm 503.0 W/m2
08:48 64.0 °F /  17.8 °C 44.4 °F /  6.9 °C 30.09in /  1018.8hPa NE 4.9mph /  7.9km/h 5.0mph /  8km/h 49% 0.00in /  0mm 522.0 W/m2
08:54 64.9 °F /  18.3 °C 44.8 °F /  7.1 °C 30.09in /  1018.8hPa North 4.9mph /  7.9km/h 7.0mph /  11.3km/h 48% 0.00in /  0mm 538.0 W/m2
09:00 65.5 °F /  18.6 °C 44.8 °F /  7.1 °C 30.09in /  1018.8hPa Calm   2.0mph /  3.2km/h 47% 0.00in /  0mm 555.0 W/m2
09:07 66.0 °F /  18.9 °C 45.1 °F /  7.3 °C 30.09in /  1018.8hPa Calm   2.0mph /  3.2km/h 47% 0.00in /  0mm 573.0 W/m2
09:13 67.1 °F /  19.5 °C 45.0 °F /  7.2 °C 30.09in /  1018.8hPa NNE 2.0mph /  3.2km/h 2.0mph /  3.2km/h 45% 0.00in /  0mm 594.0 W/m2
09:19 67.6 °F /  19.8 °C 45.0 °F /  7.2 °C 30.09in /  1018.8hPa Calm   3.0mph /  4.8km/h 44% 0.00in /  0mm 608.0 W/m2
09:25 67.8 °F /  19.9 °C 45.7 °F /  7.6 °C 30.09in /  1018.8hPa Calm   1.0mph /  1.6km/h 45% 0.00in /  0mm 624.0 W/m2
09:31 68.2 °F /  20.1 °C 45.5 °F /  7.5 °C 30.08in /  1018.5hPa North 2.0mph /  3.2km/h 3.0mph /  4.8km/h 44% 0.00in /  0mm 636.0 W/m2
09:37 68.5 °F /  20.3 °C 44.6 °F /  7 °C 30.08in /  1018.5hPa Calm   5.0mph /  8km/h 42% 0.00in /  0mm 650.0 W/m2
09:43 69.3 °F /  20.7 °C 45.9 °F /  7.7 °C 30.08in /  1018.5hPa Calm   4.0mph /  6.4km/h 43% 0.00in /  0mm 664.0 W/m2
09:50 69.6 °F /  20.9 °C 45.5 °F /  7.5 °C 30.08in /  1018.5hPa NNW 4.0mph /  6.4km/h 6.0mph /  9.7km/h 42% 0.00in /  0mm 679.0 W/m2
09:56 70.0 °F /  21.1 °C 45.1 °F /  7.3 °C 30.08in /  1018.5hPa Calm   2.0mph /  3.2km/h 41% 0.00in /  0mm 691.0 W/m2
10:02 70.3 °F /  21.3 °C 45.5 °F /  7.5 °C 30.08in /  1018.5hPa Calm   2.0mph /  3.2km/h 41% 0.00in /  0mm 701.0 W/m2
10:08 70.0 °F /  21.1 °C 45.1 °F /  7.3 °C 30.07in /  1018.2hPa Calm   4.0mph /  6.4km/h 41% 0.00in /  0mm 714.0 W/m2
10:14 70.2 °F /  21.2 °C 46.0 °F /  7.8 °C 30.07in /  1018.2hPa Calm   1.0mph /  1.6km/h 42% 0.00in /  0mm 724.0 W/m2
10:20 70.7 °F /  21.5 °C 45.9 °F /  7.7 °C 30.07in /  1018.2hPa Calm   4.0mph /  6.4km/h 41% 0.00in /  0mm 733.0 W/m2
10:26 71.2 °F /  21.8 °C 45.0 °F /  7.2 °C 30.06in /  1017.8hPa Calm   5.0mph /  8km/h 39% 0.00in /  0mm 744.0 W/m2
10:32 71.6 °F /  22 °C 46.0 °F /  7.8 °C 30.06in /  1017.8hPa NNW 2.0mph /  3.2km/h 3.0mph /  4.8km/h 40% 0.00in /  0mm 747.0 W/m2
10:39 72.0 °F /  22.2 °C 45.7 °F /  7.6 °C 30.06in /  1017.8hPa Calm   4.0mph /  6.4km/h 39% 0.00in /  0mm 758.0 W/m2
10:45 72.1 °F /  22.3 °C 45.9 °F /  7.7 °C 30.06in /  1017.8hPa NNW 0.9mph /  1.4km/h 3.0mph /  4.8km/h 39% 0.00in /  0mm 763.0 W/m2
10:51 72.7 °F /  22.6 °C 45.7 °F /  7.6 °C 30.05in /  1017.5hPa NE 0.9mph /  1.4km/h 5.0mph /  8km/h 38% 0.00in /  0mm 768.0 W/m2
10:57 72.7 °F /  22.6 °C 46.2 °F /  7.9 °C 30.05in /  1017.5hPa Calm   5.0mph /  8km/h 39% 0.00in /  0mm 775.0 W/m2
11:03 72.9 °F /  22.7 °C 46.4 °F /  8 °C 30.05in /  1017.5hPa NNE 2.9mph /  4.7km/h 7.0mph /  11.3km/h 39% 0.00in /  0mm 779.0 W/m2
11:09 72.9 °F /  22.7 °C 47.1 °F /  8.4 °C 30.05in /  1017.5hPa NNW 2.9mph /  4.7km/h 4.0mph /  6.4km/h 40% 0.00in /  0mm 786.0 W/m2
11:15 73.0 °F /  22.8 °C 45.9 °F /  7.7 °C 30.04in /  1017.2hPa NNW 2.9mph /  4.7km/h 7.0mph /  11.3km/h 38% 0.00in /  0mm 791.0 W/m2
11:22 73.4 °F /  23 °C 46.2 °F /  7.9 °C 30.04in /  1017.2hPa NNW 4.0mph /  6.4km/h 5.0mph /  8km/h 38% 0.00in /  0mm 793.0 W/m2
11:28 73.6 °F /  23.1 °C 47.8 °F /  8.8 °C 30.04in /  1017.2hPa NNE 4.0mph /  6.4km/h 4.0mph /  6.4km/h 40% 0.00in /  0mm 796.0 W/m2
11:34 73.9 °F /  23.3 °C 46.8 °F /  8.2 °C 30.03in /  1016.8hPa North 2.0mph /  3.2km/h 7.0mph /  11.3km/h 38% 0.00in /  0mm 795.0 W/m2
11:40 74.1 °F /  23.4 °C 47.7 °F /  8.7 °C 30.03in /  1016.8hPa WSW 0.9mph /  1.4km/h 5.0mph /  8km/h 39% 0.00in /  0mm 803.0 W/m2
11:46 74.5 °F /  23.6 °C 47.1 °F /  8.4 °C 30.03in /  1016.8hPa NW 0.9mph /  1.4km/h 5.0mph /  8km/h 38% 0.00in /  0mm 819.0 W/m2
11:53 74.7 °F /  23.7 °C 46.6 °F /  8.1 °C 30.03in /  1016.8hPa North 2.0mph /  3.2km/h 6.0mph /  9.7km/h 37% 0.00in /  0mm 812.0 W/m2
11:58 74.7 °F /  23.7 °C 46.6 °F /  8.1 °C 30.02in /  1016.5hPa Calm   5.0mph /  8km/h 37% 0.00in /  0mm 805.0 W/m2
12:04 74.1 °F /  23.4 °C 45.5 °F /  7.5 °C 30.02in /  1016.5hPa West 2.0mph /  3.2km/h 3.0mph /  4.8km/h 36% 0.00in /  0mm 803.0 W/m2
12:11 73.6 °F /  23.1 °C 45.7 °F /  7.6 °C 30.01in /  1016.1hPa NNW 0.9mph /  1.4km/h 6.0mph /  9.7km/h 37% 0.00in /  0mm 805.0 W/m2
12:17 74.1 °F /  23.4 °C 46.9 °F /  8.3 °C 30.01in /  1016.1hPa Calm   4.0mph /  6.4km/h 38% 0.00in /  0mm 798.0 W/m2
12:23 74.7 °F /  23.7 °C 46.6 °F /  8.1 °C 30.01in /  1016.1hPa NNW 2.0mph /  3.2km/h 5.0mph /  8km/h 37% 0.00in /  0mm 817.0 W/m2
12:29 75.0 °F /  23.9 °C 46.2 °F /  7.9 °C 30.01in /  1016.1hPa NW 4.9mph /  7.9km/h 8.0mph /  12.9km/h 36% 0.00in /  0mm 840.0 W/m2
12:35 75.6 °F /  24.2 °C 46.0 °F /  7.8 °C 30.01in /  1016.1hPa Calm   6.0mph /  9.7km/h 35% 0.00in /  0mm 830.0 W/m2
12:41 75.9 °F /  24.4 °C 47.1 °F /  8.4 °C 30.01in /  1016.1hPa East 0.9mph /  1.4km/h 5.0mph /  8km/h 36% 0.00in /  0mm 814.0 W/m2
12:47 75.9 °F /  24.4 °C 46.2 °F /  7.9 °C 30.00in /  1015.8hPa North 2.0mph /  3.2km/h 7.0mph /  11.3km/h 35% 0.00in /  0mm 819.0 W/m2
12:53 75.7 °F /  24.3 °C 46.2 °F /  7.9 °C 30.00in /  1015.8hPa NNE 2.9mph /  4.7km/h 3.0mph /  4.8km/h 35% 0.00in /  0mm 800.0 W/m2
12:59 75.6 °F /  24.2 °C 46.0 °F /  7.8 °C 29.99in /  1015.5hPa West 0.9mph /  1.4km/h 4.0mph /  6.4km/h 35% 0.00in /  0mm 870.0 W/m2
13:06 75.9 °F /  24.4 °C 47.1 °F /  8.4 °C 30.00in /  1015.8hPa Calm   7.0mph /  11.3km/h 36% 0.00in /  0mm 837.0 W/m2
13:18 76.3 °F /  24.6 °C 46.6 °F /  8.1 °C 29.99in /  1015.5hPa Calm   2.0mph /  3.2km/h 35% 0.00in /  0mm 828.0 W/m2
13:25 75.9 °F /  24.4 °C 46.2 °F /  7.9 °C 29.99in /  1015.5hPa Calm   3.0mph /  4.8km/h 35% 0.00in /  0mm 802.0 W/m2
13:30 75.9 °F /  24.4 °C 46.2 °F /  7.9 °C 29.98in /  1015.1hPa ENE 2.0mph /  3.2km/h 6.0mph /  9.7km/h 35% 0.00in /  0mm 796.0 W/m2
13:38 76.3 °F /  24.6 °C 45.9 °F /  7.7 °C 29.98in /  1015.1hPa ENE 4.0mph /  6.4km/h 8.0mph /  12.9km/h 34% 0.00in /  0mm 779.0 W/m2
13:44 76.5 °F /  24.7 °C 46.0 °F /  7.8 °C 29.98in /  1015.1hPa NE 4.9mph /  7.9km/h 5.0mph /  8km/h 34% 0.00in /  0mm 758.0 W/m2
13:51 76.6 °F /  24.8 °C 45.3 °F /  7.4 °C 29.98in /  1015.1hPa Calm   7.0mph /  11.3km/h 33% 0.00in /  0mm 141.0 W/m2
13:57 75.7 °F /  24.3 °C 46.2 °F /  7.9 °C 29.98in /  1015.1hPa NW 4.0mph /  6.4km/h 4.0mph /  6.4km/h 35% 0.00in /  0mm 118.0 W/m2
14:03 75.0 °F /  23.9 °C 46.2 °F /  7.9 °C 29.98in /  1015.1hPa Calm   5.0mph /  8km/h 36% 0.00in /  0mm 703.0 W/m2
14:09 75.4 °F /  24.1 °C 45.9 °F /  7.7 °C 29.98in /  1015.1hPa ENE 6.9mph /  11.1km/h 8.0mph /  12.9km/h 35% 0.00in /  0mm 698.0 W/m2
14:15 75.4 °F /  24.1 °C 46.6 °F /  8.1 °C 29.98in /  1015.1hPa NNW 6.0mph /  9.7km/h 7.0mph /  11.3km/h 36% 0.00in /  0mm 707.0 W/m2
14:21 75.7 °F /  24.3 °C 46.2 °F /  7.9 °C 29.98in /  1015.1hPa North 4.9mph /  7.9km/h 8.0mph /  12.9km/h 35% 0.00in /  0mm 691.0 W/m2
14:28 76.1 °F /  24.5 °C 45.7 °F /  7.6 °C 29.98in /  1015.1hPa ENE 2.0mph /  3.2km/h 4.0mph /  6.4km/h 34% 0.00in /  0mm 649.0 W/m2
14:34 76.3 °F /  24.6 °C 45.1 °F /  7.3 °C 29.98in /  1015.1hPa NNE 2.9mph /  4.7km/h 5.0mph /  8km/h 33% 0.00in /  0mm 343.0 W/m2
14:40 75.9 °F /  24.4 °C 44.8 °F /  7.1 °C 29.97in /  1014.8hPa Calm   7.0mph /  11.3km/h 33% 0.00in /  0mm 497.0 W/m2
14:46 75.7 °F /  24.3 °C 44.6 °F /  7 °C 29.98in /  1015.1hPa NE 4.9mph /  7.9km/h 7.0mph /  11.3km/h 33% 0.00in /  0mm 541.0 W/m2
14:52 75.7 °F /  24.3 °C 45.3 °F /  7.4 °C 29.98in /  1015.1hPa North 4.9mph /  7.9km/h 8.0mph /  12.9km/h 34% 0.00in /  0mm 520.0 W/m2
14:58 75.9 °F /  24.4 °C 45.5 °F /  7.5 °C 29.97in /  1014.8hPa ENE 2.0mph /  3.2km/h 6.0mph /  9.7km/h 34% 0.00in /  0mm 510.0 W/m2
15:04 75.9 °F /  24.4 °C 44.8 °F /  7.1 °C 29.98in /  1015.1hPa NE 4.0mph /  6.4km/h 6.0mph /  9.7km/h 33% 0.00in /  0mm 503.0 W/m2
15:10 75.9 °F /  24.4 °C 44.8 °F /  7.1 °C 29.98in /  1015.1hPa Calm   4.0mph /  6.4km/h 33% 0.00in /  0mm 496.0 W/m2
15:16 76.3 °F /  24.6 °C 45.1 °F /  7.3 °C 29.98in /  1015.1hPa SE 4.0mph /  6.4km/h 9.0mph /  14.5km/h 33% 0.00in /  0mm 504.0 W/m2
15:22 76.3 °F /  24.6 °C 45.1 °F /  7.3 °C 29.98in /  1015.1hPa East 0.9mph /  1.4km/h 5.0mph /  8km/h 33% 0.00in /  0mm 439.0 W/m2
15:28 76.1 °F /  24.5 °C 45.0 °F /  7.2 °C 29.98in /  1015.1hPa ENE 2.0mph /  3.2km/h 4.0mph /  6.4km/h 33% 0.00in /  0mm 146.0 W/m2
15:34 75.7 °F /  24.3 °C 44.6 °F /  7 °C 29.98in /  1015.1hPa North 4.9mph /  7.9km/h 8.0mph /  12.9km/h 33% 0.00in /  0mm 380.0 W/m2
15:40 75.6 °F /  24.2 °C 45.1 °F /  7.3 °C 29.98in /  1015.1hPa Calm   4.0mph /  6.4km/h 34% 0.00in /  0mm 381.0 W/m2
15:46 75.2 °F /  24 °C 45.0 °F /  7.2 °C 29.98in /  1015.1hPa SE 2.9mph /  4.7km/h 4.0mph /  6.4km/h 34% 0.00in /  0mm 216.0 W/m2
15:52 75.0 °F /  23.9 °C 44.8 °F /  7.1 °C 29.98in /  1015.1hPa ESE 0.9mph /  1.4km/h 5.0mph /  8km/h 34% 0.00in /  0mm 97.0 W/m2
15:58 74.5 °F /  23.6 °C 44.2 °F /  6.8 °C 29.98in /  1015.1hPa East 6.0mph /  9.7km/h 6.0mph /  9.7km/h 34% 0.00in /  0mm 72.0 W/m2
16:04 74.1 °F /  23.4 °C 43.9 °F /  6.6 °C 29.98in /  1015.1hPa NE 0.9mph /  1.4km/h 3.0mph /  4.8km/h 34% 0.00in /  0mm 65.0 W/m2
16:10 73.8 °F /  23.2 °C 44.4 °F /  6.9 °C 29.99in /  1015.5hPa East 0.9mph /  1.4km/h 6.0mph /  9.7km/h 35% 0.00in /  0mm 65.0 W/m2
16:16 73.2 °F /  22.9 °C 43.9 °F /  6.6 °C 29.99in /  1015.5hPa North 2.9mph /  4.7km/h 7.0mph /  11.3km/h 35% 0.00in /  0mm 81.0 W/m2
16:22 72.9 °F /  22.7 °C 43.5 °F /  6.4 °C 29.99in /  1015.5hPa NNE 0.9mph /  1.4km/h 5.0mph /  8km/h 35% 0.00in /  0mm 76.0 W/m2
16:28 72.7 °F /  22.6 °C 44.2 °F /  6.8 °C 29.99in /  1015.5hPa ESE 2.9mph /  4.7km/h 7.0mph /  11.3km/h 36% 0.00in /  0mm 62.0 W/m2
16:34 72.3 °F /  22.4 °C 45.3 °F /  7.4 °C 29.99in /  1015.5hPa Calm   4.0mph /  6.4km/h 38% 0.00in /  0mm 51.0 W/m2
16:40 72.1 °F /  22.3 °C 43.7 °F /  6.5 °C 29.99in /  1015.5hPa SSE 0.9mph /  1.4km/h 8.0mph /  12.9km/h 36% 0.00in /  0mm 35.0 W/m2
16:46 72.0 °F /  22.2 °C 44.2 °F /  6.8 °C 30.00in /  1015.8hPa NE 0.9mph /  1.4km/h 3.0mph /  4.8km/h 37% 0.00in /  0mm 30.0 W/m2
16:52 71.8 °F /  22.1 °C 44.1 °F /  6.7 °C 30.00in /  1015.8hPa ENE 0.9mph /  1.4km/h 7.0mph /  11.3km/h 37% 0.00in /  0mm 25.0 W/m2
16:58 71.2 °F /  21.8 °C 44.2 °F /  6.8 °C 30.00in /  1015.8hPa NE 0.9mph /  1.4km/h 3.0mph /  4.8km/h 38% 0.00in /  0mm 18.0 W/m2
17:04 70.9 °F /  21.6 °C 44.8 °F /  7.1 °C 30.00in /  1015.8hPa Calm   1.0mph /  1.6km/h 39% 0.00in /  0mm 19.0 W/m2
17:10 70.5 °F /  21.4 °C 45.0 °F /  7.2 °C 30.00in /  1015.8hPa NNE 0.9mph /  1.4km/h 1.0mph /  1.6km/h 40% 0.00in /  0mm 18.0 W/m2
17:15 70.2 °F /  21.2 °C 44.8 °F /  7.1 °C 30.00in /  1015.8hPa Calm   2.0mph /  3.2km/h 40% 0.00in /  0mm 14.0 W/m2
17:22 69.6 °F /  20.9 °C 44.2 °F /  6.8 °C 30.01in /  1016.1hPa Calm   1.0mph /  1.6km/h 40% 0.00in /  0mm 7.0 W/m2
17:28 69.3 °F /  20.7 °C 45.1 °F /  7.3 °C 30.01in /  1016.1hPa Calm     42% 0.00in /  0mm 0.0 W/m2
17:34 68.7 °F /  20.4 °C 44.8 °F /  7.1 °C 30.01in /  1016.1hPa Calm     42% 0.00in /  0mm 0.0 W/m2
17:40 68.4 °F /  20.2 °C 45.0 °F /  7.2 °C 30.01in /  1016.1hPa Calm   1.0mph /  1.6km/h 43% 0.00in /  0mm 0.0 W/m2
17:46 67.8 °F /  19.9 °C 45.7 °F /  7.6 °C 30.01in /  1016.1hPa Calm   1.0mph /  1.6km/h 45% 0.00in /  0mm 0.0 W/m2
17:52 67.5 °F /  19.7 °C 45.3 °F /  7.4 °C 30.01in /  1016.1hPa Calm     45% 0.00in /  0mm 0.0 W/m2
17:58 66.7 °F /  19.3 °C 45.3 °F /  7.4 °C 30.01in /  1016.1hPa Calm   1.0mph /  1.6km/h 46% 0.00in /  0mm 0.0 W/m2
18:04 66.0 °F /  18.9 °C 45.1 °F /  7.3 °C 30.01in /  1016.1hPa Calm     47% 0.00in /  0mm 0.0 W/m2
18:10 65.7 °F /  18.7 °C 46.0 °F /  7.8 °C 30.01in /  1016.1hPa Calm     49% 0.00in /  0mm 0.0 W/m2
18:16 65.1 °F /  18.4 °C 45.5 °F /  7.5 °C 30.01in /  1016.1hPa Calm     49% 0.00in /  0mm 0.0 W/m2
18:22 64.6 °F /  18.1 °C 45.5 °F /  7.5 °C 30.01in /  1016.1hPa Calm     50% 0.00in /  0mm 0.0 W/m2
18:28 64.0 °F /  17.8 °C 45.5 °F /  7.5 °C 30.02in /  1016.5hPa Calm     51% 0.00in /  0mm 0.0 W/m2
18:34 63.7 °F /  17.6 °C 45.1 °F /  7.3 °C 30.02in /  1016.5hPa Calm   1.0mph /  1.6km/h 51% 0.00in /  0mm 0.0 W/m2
18:40 63.3 °F /  17.4 °C 45.0 °F /  7.2 °C 30.02in /  1016.5hPa Calm   1.0mph /  1.6km/h 51% 0.00in /  0mm 0.0 W/m2
18:46 63.0 °F /  17.2 °C 45.5 °F /  7.5 °C 30.03in /  1016.8hPa Calm   2.0mph /  3.2km/h 53% 0.00in /  0mm 0.0 W/m2
18:52 62.6 °F /  17 °C 45.1 °F /  7.3 °C 30.03in /  1016.8hPa Calm     53% 0.00in /  0mm 0.0 W/m2
18:58 62.2 °F /  16.8 °C 45.3 °F /  7.4 °C 30.03in /  1016.8hPa Calm     54% 0.00in /  0mm 0.0 W/m2
19:04 62.1 °F /  16.7 °C 45.1 °F /  7.3 °C 30.03in /  1016.8hPa Calm   2.0mph /  3.2km/h 54% 0.00in /  0mm 0.0 W/m2
19:10 61.9 °F /  16.6 °C 45.5 °F /  7.5 °C 30.03in /  1016.8hPa Calm   4.0mph /  6.4km/h 55% 0.00in /  0mm 0.0 W/m2
19:16 61.5 °F /  16.4 °C 45.1 °F /  7.3 °C 30.03in /  1016.8hPa NNE 2.0mph /  3.2km/h 3.0mph /  4.8km/h 55% 0.00in /  0mm 0.0 W/m2
19:22 61.5 °F /  16.4 °C 45.1 °F /  7.3 °C 30.03in /  1016.8hPa Calm   3.0mph /  4.8km/h 55% 0.00in /  0mm 0.0 W/m2
19:28 61.3 °F /  16.3 °C 45.5 °F /  7.5 °C 30.03in /  1016.8hPa Calm   4.0mph /  6.4km/h 56% 0.00in /  0mm 0.0 W/m2
19:34 61.2 °F /  16.2 °C 45.3 °F /  7.4 °C 30.03in /  1016.8hPa Calm   2.0mph /  3.2km/h 56% 0.00in /  0mm 0.0 W/m2
19:40 61.0 °F /  16.1 °C 45.1 °F /  7.3 °C 30.03in /  1016.8hPa Calm   2.0mph /  3.2km/h 56% 0.00in /  0mm 0.0 W/m2
19:46 61.0 °F /  16.1 °C 45.1 °F /  7.3 °C 30.03in /  1016.8hPa Calm   3.0mph /  4.8km/h 56% 0.00in /  0mm 0.0 W/m2
19:52 60.8 °F /  16 °C 45.0 °F /  7.2 °C 30.03in /  1016.8hPa Calm   2.0mph /  3.2km/h 56% 0.00in /  0mm 0.0 W/m2
19:58 60.6 °F /  15.9 °C 44.8 °F /  7.1 °C 30.03in /  1016.8hPa NNE 0.9mph /  1.4km/h 2.0mph /  3.2km/h 56% 0.00in /  0mm 0.0 W/m2
20:04 60.6 °F /  15.9 °C 44.8 °F /  7.1 °C 30.03in /  1016.8hPa Calm   3.0mph /  4.8km/h 56% 0.00in /  0mm 0.0 W/m2
20:10 60.6 °F /  15.9 °C 45.3 °F /  7.4 °C 30.04in /  1017.2hPa NE 0.9mph /  1.4km/h 1.0mph /  1.6km/h 57% 0.00in /  0mm 0.0 W/m2
20:16 60.6 °F /  15.9 °C 45.3 °F /  7.4 °C 30.04in /  1017.2hPa Calm   1.0mph /  1.6km/h 57% 0.00in /  0mm 0.0 W/m2
20:22 60.4 °F /  15.8 °C 45.1 °F /  7.3 °C 30.04in /  1017.2hPa NE 0.9mph /  1.4km/h 5.0mph /  8km/h 57% 0.00in /  0mm 0.0 W/m2
20:28 60.3 °F /  15.7 °C 45.0 °F /  7.2 °C 30.05in /  1017.5hPa ENE 2.9mph /  4.7km/h 4.0mph /  6.4km/h 57% 0.00in /  0mm 0.0 W/m2
20:35 60.3 °F /  15.7 °C 45.5 °F /  7.5 °C 30.05in /  1017.5hPa NNE 2.0mph /  3.2km/h 4.0mph /  6.4km/h 58% 0.00in /  0mm 0.0 W/m2
20:40 60.1 °F /  15.6 °C 45.3 °F /  7.4 °C 30.05in /  1017.5hPa Calm   4.0mph /  6.4km/h 58% 0.00in /  0mm 0.0 W/m2
20:46 59.9 °F /  15.5 °C 45.1 °F /  7.3 °C 30.05in /  1017.5hPa Calm   2.0mph /  3.2km/h 58% 0.00in /  0mm 0.0 W/m2
20:52 59.7 °F /  15.4 °C 45.3 °F /  7.4 °C 30.05in /  1017.5hPa Calm     59% 0.00in /  0mm 0.0 W/m2
20:58 59.4 °F /  15.2 °C 45.5 °F /  7.5 °C 30.06in /  1017.8hPa Calm   1.0mph /  1.6km/h 60% 0.00in /  0mm 0.0 W/m2
21:04 59.2 °F /  15.1 °C 45.3 °F /  7.4 °C 30.06in /  1017.8hPa ESE 0.9mph /  1.4km/h 1.0mph /  1.6km/h 60% 0.00in /  0mm 0.0 W/m2
21:10 58.8 °F /  14.9 °C 45.0 °F /  7.2 °C 30.06in /  1017.8hPa Calm     60% 0.00in /  0mm 0.0 W/m2
21:16 58.5 °F /  14.7 °C 45.1 °F /  7.3 °C 30.06in /  1017.8hPa Calm     61% 0.00in /  0mm 0.0 W/m2
21:22 58.3 °F /  14.6 °C 45.3 °F /  7.4 °C 30.06in /  1017.8hPa Calm     62% 0.00in /  0mm 0.0 W/m2
21:28 57.9 °F /  14.4 °C 45.3 °F /  7.4 °C 30.06in /  1017.8hPa Calm     63% 0.00in /  0mm 0.0 W/m2
21:34 57.6 °F /  14.2 °C 45.5 °F /  7.5 °C 30.06in /  1017.8hPa Calm   1.0mph /  1.6km/h 64% 0.00in /  0mm 0.0 W/m2
21:40 57.4 °F /  14.1 °C 45.3 °F /  7.4 °C 30.06in /  1017.8hPa Calm   2.0mph /  3.2km/h 64% 0.00in /  0mm 0.0 W/m2
21:46 57.0 °F /  13.9 °C 45.3 °F /  7.4 °C 30.06in /  1017.8hPa Calm   1.0mph /  1.6km/h 65% 0.00in /  0mm 0.0 W/m2
21:53 56.7 °F /  13.7 °C 45.0 °F /  7.2 °C 30.07in /  1018.2hPa Calm     65% 0.00in /  0mm 0.0 W/m2
21:59 56.5 °F /  13.6 °C 45.3 °F /  7.4 °C 30.06in /  1017.8hPa Calm     66% 0.00in /  0mm 0.0 W/m2
22:05 56.1 °F /  13.4 °C 45.0 °F /  7.2 °C 30.07in /  1018.2hPa Calm     66% 0.00in /  0mm 0.0 W/m2
22:11 55.9 °F /  13.3 °C 45.1 °F /  7.3 °C 30.07in /  1018.2hPa Calm     67% 0.00in /  0mm 0.0 W/m2
22:17 55.8 °F /  13.2 °C 45.0 °F /  7.2 °C 30.07in /  1018.2hPa Calm     67% 0.00in /  0mm 0.0 W/m2
22:23 55.6 °F /  13.1 °C 45.1 °F /  7.3 °C 30.07in /  1018.2hPa Calm     68% 0.00in /  0mm 0.0 W/m2
22:29 55.2 °F /  12.9 °C 45.1 °F /  7.3 °C 30.07in /  1018.2hPa Calm     69% 0.00in /  0mm 0.0 W/m2
22:35 55.0 °F /  12.8 °C 45.1 °F /  7.3 °C 30.07in /  1018.2hPa Calm     69% 0.00in /  0mm 0.0 W/m2
22:41 54.9 °F /  12.7 °C 45.0 °F /  7.2 °C 30.07in /  1018.2hPa Calm     69% 0.00in /  0mm 0.0 W/m2
22:47 54.7 °F /  12.6 °C 45.1 °F /  7.3 °C 30.07in /  1018.2hPa Calm     70% 0.00in /  0mm 0.0 W/m2
22:53 54.3 °F /  12.4 °C 44.8 °F /  7.1 °C 30.08in /  1018.5hPa Calm     70% 0.00in /  0mm 0.0 W/m2
22:59 54.1 °F /  12.3 °C 45.0 °F /  7.2 °C 30.08in /  1018.5hPa Calm     71% 0.00in /  0mm 0.0 W/m2
23:05 54.1 °F /  12.3 °C 45.0 °F /  7.2 °C 30.08in /  1018.5hPa Calm     71% 0.00in /  0mm 0.0 W/m2
23:11 54.0 °F /  12.2 °C 45.1 °F /  7.3 °C 30.08in /  1018.5hPa Calm     72% 0.00in /  0mm 0.0 W/m2
23:17 53.8 °F /  12.1 °C 45.0 °F /  7.2 °C 30.08in /  1018.5hPa Calm     72% 0.00in /  0mm 0.0 W/m2
23:23 53.4 °F /  11.9 °C 44.6 °F /  7 °C 30.07in /  1018.2hPa Calm     72% 0.00in /  0mm 0.0 W/m2
23:29 53.4 °F /  11.9 °C 44.6 °F /  7 °C 30.07in /  1018.2hPa Calm     72% 0.00in /  0mm 0.0 W/m2
23:35 53.2 °F /  11.8 °C 44.8 °F /  7.1 °C 30.07in /  1018.2hPa Calm     73% 0.00in /  0mm 0.0 W/m2
23:41 53.1 °F /  11.7 °C 44.6 °F /  7 °C 30.07in /  1018.2hPa Calm     73% 0.00in /  0mm 0.0 W/m2
23:48 53.1 °F /  11.7 °C 44.6 °F /  7 °C 30.07in /  1018.2hPa Calm     73% 0.00in /  0mm 0.0 W/m2
23:54 52.9 °F /  11.6 °C 44.4 °F /  6.9 °C 30.07in /  1018.2hPa Calm     73% 0.00in /  0mm 0.0 W/m2
Olympia, Windhoek, Namibia
Compliments of Weather Underground - 3 mb